createdAt,value
2018-04-15T00:00:06.297Z,11.40
2018-04-15T00:02:33.864Z,11.50
2018-04-15T00:05:01.472Z,11.50
2018-04-15T00:07:29.032Z,11.50
2018-04-15T00:09:56.848Z,11.50
2018-04-15T00:12:24.426Z,11.60
2018-04-15T00:14:52.008Z,11.50
2018-04-15T00:17:20.366Z,11.50
2018-04-15T00:19:47.955Z,11.60
2018-04-15T00:22:16.314Z,11.60
2018-04-15T00:24:43.878Z,11.60
2018-04-15T00:27:12.224Z,11.70
2018-04-15T00:29:39.784Z,11.70
2018-04-15T00:32:07.360Z,11.70
2018-04-15T00:34:34.979Z,11.80
2018-04-15T00:37:02.548Z,11.80
2018-04-15T00:39:30.126Z,11.90
2018-04-15T00:41:57.847Z,11.90
2018-04-15T00:44:25.415Z,11.90
2018-04-15T00:46:52.989Z,11.90
2018-04-15T00:49:20.545Z,11.80
2018-04-15T00:51:48.131Z,11.80
2018-04-15T00:54:17.471Z,11.80
2018-04-15T00:56:45.834Z,11.80
2018-04-15T00:59:13.394Z,11.80
2018-04-15T01:01:40.976Z,11.80
2018-04-15T01:04:09.309Z,11.80
2018-04-15T01:06:36.911Z,11.80
2018-04-15T01:09:05.997Z,11.90
2018-04-15T01:11:33.585Z,11.80
2018-04-15T01:14:01.171Z,11.80
2018-04-15T01:16:28.743Z,11.80
2018-04-15T01:18:56.355Z,11.80
2018-04-15T01:21:24.703Z,11.90
2018-04-15T01:23:52.283Z,11.80
2018-04-15T01:26:19.851Z,11.90
2018-04-15T01:28:48.199Z,11.80
2018-04-15T01:31:15.776Z,11.80
2018-04-15T01:33:43.416Z,11.80
2018-04-15T01:36:11.102Z,11.80
2018-04-15T01:38:38.668Z,11.80
2018-04-15T01:41:06.232Z,11.90
2018-04-15T01:43:33.821Z,11.80
2018-04-15T01:46:01.488Z,11.80
2018-04-15T01:48:29.103Z,11.70
2018-04-15T01:50:56.675Z,11.70
2018-04-15T01:53:24.277Z,11.60
2018-04-15T01:55:51.824Z,11.60
2018-04-15T01:58:19.426Z,11.60
2018-04-15T02:00:47.016Z,11.70
2018-04-15T02:03:14.620Z,11.70
2018-04-15T02:05:42.196Z,11.70
2018-04-15T02:08:09.860Z,11.70
2018-04-15T02:10:37.415Z,11.70
2018-04-15T02:13:05.004Z,11.70
2018-04-15T02:15:32.589Z,11.60
2018-04-15T02:18:00.148Z,11.60
2018-04-15T02:20:27.740Z,11.60
2018-04-15T02:22:55.307Z,11.60
2018-04-15T02:25:22.929Z,11.60
2018-04-15T02:27:50.501Z,11.60
2018-04-15T02:30:18.146Z,11.70
2018-04-15T02:32:45.720Z,11.70
2018-04-15T02:35:13.304Z,11.60
2018-04-15T02:37:41.627Z,11.60
2018-04-15T02:40:09.232Z,11.60
2018-04-15T02:42:37.579Z,11.60
2018-04-15T02:45:05.157Z,11.50
2018-04-15T02:47:32.740Z,11.50
2018-04-15T02:50:01.096Z,11.60
2018-04-15T02:52:28.665Z,11.60
2018-04-15T02:54:57.022Z,11.60
2018-04-15T02:57:24.610Z,11.60
2018-04-15T02:59:52.996Z,11.60
2018-04-15T03:02:21.363Z,11.60
2018-04-15T03:04:48.935Z,11.60
2018-04-15T03:07:17.299Z,11.70
2018-04-15T03:09:44.908Z,11.60
2018-04-15T03:12:12.485Z,11.70
2018-04-15T03:14:40.031Z,11.70
2018-04-15T03:17:07.628Z,11.80
2018-04-15T03:19:35.203Z,11.80
2018-04-15T03:22:02.785Z,11.70
2018-04-15T03:24:31.132Z,11.80
2018-04-15T03:26:58.721Z,11.70
2018-04-15T03:29:27.543Z,11.80
2018-04-15T03:31:55.112Z,11.70
2018-04-15T03:34:22.684Z,11.70
2018-04-15T03:36:50.268Z,11.70
2018-04-15T03:39:17.842Z,11.70
2018-04-15T03:41:46.324Z,11.80
2018-04-15T03:44:13.939Z,11.70
2018-04-15T03:46:41.529Z,11.80
2018-04-15T03:49:09.117Z,11.80
2018-04-15T03:51:37.584Z,11.80
2018-04-15T03:54:05.177Z,11.80
2018-04-15T03:56:32.850Z,11.80
2018-04-15T03:59:00.427Z,11.80
2018-04-15T04:01:28.009Z,11.80
2018-04-15T04:03:55.597Z,11.80
2018-04-15T04:06:23.173Z,11.70
2018-04-15T04:08:51.532Z,11.70
2018-04-15T04:11:19.102Z,11.70
2018-04-15T04:13:46.680Z,11.70
2018-04-15T04:16:15.061Z,11.70
2018-04-15T04:18:54.461Z,11.70
2018-04-15T04:21:33.796Z,11.70
2018-04-15T04:24:27.037Z,11.70
2018-04-15T04:26:54.615Z,11.70
2018-04-15T04:29:22.207Z,11.70
2018-04-15T04:31:50.576Z,11.60
2018-04-15T04:34:18.146Z,11.60
2018-04-15T04:36:46.511Z,11.60
2018-04-15T04:39:14.223Z,11.60
2018-04-15T04:41:41.800Z,11.60
2018-04-15T04:44:09.404Z,11.70
2018-04-15T04:46:36.991Z,11.60
2018-04-15T04:49:04.578Z,11.70
2018-04-15T04:51:32.166Z,11.70
2018-04-15T04:53:59.737Z,11.70
2018-04-15T04:56:27.315Z,11.70
2018-04-15T04:58:55.644Z,11.70
2018-04-15T05:01:23.220Z,11.70
2018-04-15T05:03:50.800Z,11.70
2018-04-15T05:06:18.380Z,11.70
2018-04-15T05:08:46.717Z,11.70
2018-04-15T05:11:14.337Z,11.70
2018-04-15T05:13:41.885Z,11.80
2018-04-15T05:16:10.259Z,11.70
2018-04-15T05:18:38.585Z,11.70
2018-04-15T05:21:06.168Z,11.70
2018-04-15T05:23:33.863Z,11.70
2018-04-15T05:26:01.443Z,11.70
2018-04-15T05:28:29.018Z,11.70
2018-04-15T05:30:56.602Z,11.70
2018-04-15T05:33:24.192Z,11.70
2018-04-15T05:35:51.776Z,11.80
2018-04-15T05:38:20.120Z,11.70
2018-04-15T05:40:47.698Z,11.70
2018-04-15T05:43:15.276Z,11.70
2018-04-15T05:45:43.608Z,11.70
2018-04-15T05:48:11.208Z,11.70
2018-04-15T05:50:39.545Z,11.70
2018-04-15T05:53:07.128Z,11.70
2018-04-15T05:55:34.715Z,11.70
2018-04-15T05:58:03.100Z,11.80
2018-04-15T06:00:31.448Z,11.70
2018-04-15T06:02:59.920Z,11.80
2018-04-15T06:05:27.504Z,11.70
2018-04-15T06:07:55.072Z,11.80
2018-04-15T06:10:23.409Z,11.90
2018-04-15T06:12:51.049Z,11.80
2018-04-15T06:15:18.624Z,11.90
2018-04-15T06:17:46.207Z,11.90
2018-04-15T06:20:14.274Z,11.90
2018-04-15T06:22:42.027Z,11.90
2018-04-15T06:25:09.601Z,11.90
2018-04-15T06:27:37.174Z,11.90
2018-04-15T06:30:04.752Z,11.90
2018-04-15T06:32:33.087Z,12.00
2018-04-15T06:35:00.710Z,12.00
2018-04-15T06:37:29.037Z,12.00
2018-04-15T06:39:56.623Z,12.00
2018-04-15T06:42:24.198Z,12.00
2018-04-15T06:44:52.545Z,12.10
2018-04-15T06:47:20.108Z,12.10
2018-04-15T06:49:47.712Z,12.10
2018-04-15T06:52:15.271Z,12.10
2018-04-15T06:54:42.869Z,12.10
2018-04-15T06:57:10.436Z,12.10
2018-04-15T06:59:38.031Z,12.10
2018-04-15T07:02:06.360Z,12.20
2018-04-15T07:04:33.928Z,12.20
2018-04-15T07:07:01.523Z,12.30
2018-04-15T07:09:29.146Z,12.30
2018-04-15T07:11:56.860Z,12.30
2018-04-15T07:14:24.467Z,12.40
2018-04-15T07:16:52.063Z,12.40
2018-04-15T07:19:19.623Z,12.40
2018-04-15T07:21:47.294Z,12.40
2018-04-15T07:24:14.832Z,12.40
2018-04-15T07:26:42.430Z,12.50
2018-04-15T07:29:10.845Z,12.50
2018-04-15T07:31:38.427Z,12.50
2018-04-15T07:34:05.985Z,12.50
2018-04-15T07:36:33.777Z,12.50
2018-04-15T07:39:02.052Z,12.50
2018-04-15T07:41:29.640Z,12.50
2018-04-15T07:43:57.988Z,12.60
2018-04-15T07:46:25.569Z,12.60
2018-04-15T07:48:53.147Z,12.70
2018-04-15T07:51:21.482Z,12.70
2018-04-15T07:53:49.065Z,12.70
2018-04-15T07:56:17.424Z,12.70
2018-04-15T07:58:44.984Z,12.70
2018-04-15T08:01:12.563Z,12.90
2018-04-15T08:03:40.152Z,13.00
2018-04-15T08:06:08.554Z,13.20
2018-04-15T08:08:36.131Z,13.10
2018-04-15T08:11:03.682Z,13.30
2018-04-15T08:13:31.301Z,13.40
2018-04-15T08:15:58.869Z,13.40
2018-04-15T08:18:26.444Z,13.70
2018-04-15T08:20:54.008Z,14.10
2018-04-15T08:23:21.607Z,14.30
2018-04-15T08:25:49.214Z,14.50
2018-04-15T08:28:17.537Z,15.20
2018-04-15T08:30:45.132Z,15.10
2018-04-15T08:33:12.720Z,16.10
2018-04-15T08:35:41.060Z,17.90
2018-04-15T08:38:09.665Z,17.90
2018-04-15T08:40:37.252Z,18.10
2018-04-15T08:43:05.589Z,18.80
2018-04-15T08:45:33.180Z,18.80
2018-04-15T08:48:01.563Z,20.20
2018-04-15T08:50:29.884Z,19.40
2018-04-15T08:52:57.491Z,19.40
2018-04-15T08:55:25.043Z,19.00
2018-04-15T08:57:52.621Z,19.40
2018-04-15T09:00:20.972Z,22.10
2018-04-15T09:02:48.549Z,22.10
2018-04-15T09:05:16.118Z,23.10
2018-04-15T09:07:44.450Z,24.40
2018-04-15T09:10:12.058Z,24.30
2018-04-15T09:12:40.421Z,26.70
2018-04-15T09:15:08.023Z,26.70
2018-04-15T09:17:35.620Z,26.60
2018-04-15T09:20:03.197Z,25.30
2018-04-15T09:22:30.751Z,25.60
2018-04-15T09:24:58.320Z,26.10
2018-04-15T09:27:25.924Z,26.40
2018-04-15T09:29:54.252Z,27.10
2018-04-15T09:32:21.819Z,27.10
2018-04-15T09:34:49.397Z,28.80
2018-04-15T09:37:16.964Z,27.90
2018-04-15T09:39:45.329Z,25.40
2018-04-15T09:42:12.895Z,25.40
2018-04-15T09:44:40.532Z,25.10
2018-04-15T09:47:08.236Z,25.80
2018-04-15T09:49:36.593Z,26.10
2018-04-15T09:52:04.175Z,26.10
2018-04-15T09:54:32.503Z,26.80
2018-04-15T09:57:00.055Z,26.80
2018-04-15T09:59:27.707Z,26.70
2018-04-15T10:01:55.272Z,27.30
2018-04-15T10:04:22.864Z,27.50
2018-04-15T10:06:50.446Z,27.60
2018-04-15T10:09:18.032Z,28.80
2018-04-15T10:11:45.682Z,28.50
2018-04-15T10:14:14.037Z,28.10
2018-04-15T10:16:41.645Z,28.10
2018-04-15T10:19:09.203Z,28.40
2018-04-15T10:21:36.783Z,28.30
2018-04-15T10:24:04.378Z,28.60
2018-04-15T10:26:31.937Z,27.90
2018-04-15T10:28:59.522Z,27.40
2018-04-15T10:31:27.090Z,26.00
2018-04-15T10:33:55.435Z,25.10
2018-04-15T10:36:23.032Z,25.00
2018-04-15T10:38:51.359Z,25.40
2018-04-15T10:41:18.971Z,25.40
2018-04-15T10:43:46.591Z,26.30
2018-04-15T10:46:14.169Z,26.80
2018-04-15T10:48:41.725Z,27.80
2018-04-15T10:51:09.331Z,27.80
2018-04-15T10:53:36.889Z,27.00
2018-04-15T10:56:05.226Z,25.40
2018-04-15T10:58:32.796Z,25.30
2018-04-15T11:01:00.370Z,25.30
2018-04-15T11:03:28.737Z,25.50
2018-04-15T11:05:56.416Z,25.50
2018-04-15T11:08:23.981Z,25.30
2018-04-15T11:10:52.311Z,24.90
2018-04-15T11:13:19.865Z,24.80
2018-04-15T11:15:47.445Z,25.50
2018-04-15T11:18:15.031Z,26.10
2018-04-15T11:20:42.605Z,26.10
2018-04-15T11:23:10.963Z,24.00
2018-04-15T11:25:38.583Z,22.80
2018-04-15T11:28:06.523Z,23.30
2018-04-15T11:30:34.876Z,23.10
2018-04-15T11:33:02.435Z,23.10
2018-04-15T11:35:30.051Z,24.00
2018-04-15T11:37:58.386Z,23.30
2018-04-15T11:40:26.707Z,23.10
2018-04-15T11:42:54.308Z,23.00
2018-04-15T11:45:21.864Z,22.70
2018-04-15T11:47:49.438Z,22.80
2018-04-15T11:50:16.999Z,22.70
2018-04-15T11:52:44.581Z,22.30
2018-04-15T11:55:12.920Z,22.20
2018-04-15T11:57:40.502Z,22.20
2018-04-15T12:00:08.075Z,21.90
2018-04-15T12:02:36.408Z,21.70
2018-04-15T12:05:03.983Z,21.70
2018-04-15T12:07:31.623Z,22.20
2018-04-15T12:09:59.211Z,22.30
2018-04-15T12:12:26.799Z,22.40
2018-04-15T12:14:55.145Z,21.80
2018-04-15T12:17:22.716Z,21.80
2018-04-15T12:19:50.336Z,21.80
2018-04-15T12:22:17.895Z,22.00
2018-04-15T12:24:45.495Z,21.70
2018-04-15T12:27:13.057Z,21.50
2018-04-15T12:29:40.643Z,21.40
2018-04-15T12:32:08.974Z,21.70
2018-04-15T12:34:36.656Z,21.70
2018-04-15T12:37:04.231Z,22.00
2018-04-15T12:39:31.828Z,22.20
2018-04-15T12:41:59.436Z,22.30
2018-04-15T12:44:27.019Z,22.40
2018-04-15T12:46:54.600Z,22.00
2018-04-15T12:49:22.931Z,21.50
2018-04-15T12:51:50.501Z,21.40
2018-04-15T12:54:18.060Z,21.10
2018-04-15T12:56:45.640Z,21.00
2018-04-15T12:59:13.216Z,21.60
2018-04-15T13:01:41.569Z,22.60
2018-04-15T13:04:09.129Z,22.60
2018-04-15T13:06:36.714Z,22.40
2018-04-15T13:09:05.824Z,23.40
2018-04-15T13:11:34.185Z,23.30
2018-04-15T13:14:01.754Z,23.30
2018-04-15T13:16:30.102Z,22.70
2018-04-15T13:18:57.685Z,22.70
2018-04-15T13:21:25.269Z,22.70
2018-04-15T13:23:53.622Z,23.00
2018-04-15T13:26:21.220Z,23.00
2018-04-15T13:28:48.793Z,22.90
2018-04-15T13:31:16.468Z,23.00
2018-04-15T13:33:44.065Z,22.70
2018-04-15T13:36:11.676Z,22.50
2018-04-15T13:38:39.252Z,22.10
2018-04-15T13:41:06.838Z,21.90
2018-04-15T13:43:35.200Z,21.60
2018-04-15T13:46:02.763Z,21.30
2018-04-15T13:48:30.372Z,21.20
2018-04-15T13:50:58.782Z,21.30
2018-04-15T13:53:26.376Z,21.30
2018-04-15T13:55:53.982Z,21.40
2018-04-15T13:58:22.401Z,21.60
2018-04-15T14:00:49.996Z,21.60
2018-04-15T14:03:17.636Z,21.60
2018-04-15T14:05:45.183Z,21.60
2018-04-15T14:08:12.822Z,21.50
2018-04-15T14:10:40.367Z,21.30
2018-04-15T14:13:08.771Z,21.50
2018-04-15T14:15:36.368Z,21.50
2018-04-15T14:18:03.937Z,21.50
2018-04-15T14:20:31.527Z,21.50
2018-04-15T14:22:59.866Z,21.40
2018-04-15T14:25:27.486Z,21.40
2018-04-15T14:27:55.075Z,21.40
2018-04-15T14:30:22.693Z,21.40
2018-04-15T14:32:51.039Z,21.30
2018-04-15T14:35:18.629Z,21.30
2018-04-15T14:37:46.975Z,20.90
2018-04-15T14:40:14.686Z,20.80
2018-04-15T14:42:42.260Z,20.80
2018-04-15T14:45:09.896Z,20.80
2018-04-15T14:47:38.213Z,20.70
2018-04-15T14:50:06.595Z,20.60
2018-04-15T14:52:34.184Z,20.60
2018-04-15T14:55:01.783Z,20.60
2018-04-15T14:57:30.147Z,20.40
2018-04-15T14:59:57.699Z,20.40
2018-04-15T15:02:25.284Z,20.30
2018-04-15T15:04:53.626Z,20.20
2018-04-15T15:07:21.223Z,20.20
2018-04-15T15:09:49.599Z,20.30
2018-04-15T15:12:17.958Z,20.30
2018-04-15T15:14:45.533Z,20.40
2018-04-15T15:17:13.891Z,20.60
2018-04-15T15:19:41.481Z,20.60
2018-04-15T15:22:09.003Z,20.70
2018-04-15T15:24:36.610Z,20.90
2018-04-15T15:27:04.973Z,21.20
2018-04-15T15:29:33.320Z,21.20
2018-04-15T15:32:00.956Z,21.20
2018-04-15T15:34:28.508Z,21.20
2018-04-15T15:36:56.076Z,21.20
2018-04-15T15:39:23.703Z,21.20
2018-04-15T15:41:52.028Z,21.00
2018-04-15T15:44:19.635Z,19.70
2018-04-15T15:46:47.177Z,21.00
2018-04-15T15:49:14.784Z,21.00
2018-04-15T15:51:42.365Z,21.00
2018-04-15T15:54:09.985Z,21.00
2018-04-15T15:56:38.337Z,21.10
2018-04-15T15:59:06.007Z,21.10
2018-04-15T16:01:33.564Z,21.20
2018-04-15T16:04:01.153Z,21.30
2018-04-15T16:06:29.720Z,21.30
2018-04-15T16:08:57.296Z,21.40
2018-04-15T16:11:25.659Z,21.40
2018-04-15T16:13:53.211Z,21.30
2018-04-15T16:16:20.821Z,21.10
2018-04-15T16:18:48.453Z,20.90
2018-04-15T16:21:16.804Z,20.80
2018-04-15T16:23:44.399Z,20.70
2018-04-15T16:26:11.988Z,20.70
2018-04-15T16:28:39.553Z,20.60
2018-04-15T16:31:07.176Z,20.60
2018-04-15T16:33:34.765Z,20.50
2018-04-15T16:36:03.125Z,20.40
2018-04-15T16:38:31.464Z,20.30
2018-04-15T16:40:59.199Z,20.30
2018-04-15T16:43:26.818Z,20.30
2018-04-15T16:45:54.393Z,20.20
2018-04-15T16:48:22.918Z,20.10
2018-04-15T16:50:50.542Z,20.10
2018-04-15T16:53:18.086Z,20.00
2018-04-15T16:55:45.669Z,19.90
2018-04-15T16:58:13.272Z,19.80
2018-04-15T17:00:40.840Z,19.80
2018-04-15T17:03:08.466Z,19.80
2018-04-15T17:05:36.062Z,19.80
2018-04-15T17:08:03.672Z,19.70
2018-04-15T17:10:32.032Z,19.70
2018-04-15T17:12:59.639Z,19.60
2018-04-15T17:15:27.209Z,19.60
2018-04-15T17:17:54.796Z,19.50
2018-04-15T17:20:22.353Z,19.50
2018-04-15T17:22:49.960Z,19.40
2018-04-15T17:25:17.583Z,19.30
2018-04-15T17:27:45.190Z,19.20
2018-04-15T17:30:12.814Z,19.10
2018-04-15T17:32:40.430Z,19.00
2018-04-15T17:35:08.021Z,18.90
2018-04-15T17:37:35.655Z,18.80
2018-04-15T17:40:03.259Z,18.80
2018-04-15T17:42:30.850Z,18.60
2018-04-15T17:44:59.672Z,18.40
2018-04-15T17:47:27.282Z,18.40
2018-04-15T17:49:54.899Z,18.30
2018-04-15T17:52:22.473Z,18.20
2018-04-15T17:54:50.090Z,18.20
2018-04-15T17:57:18.451Z,18.00
2018-04-15T17:59:46.054Z,18.00
2018-04-15T18:02:13.642Z,18.00
2018-04-15T18:04:41.235Z,17.90
2018-04-15T18:07:08.846Z,17.80
2018-04-15T18:09:36.454Z,17.70
2018-04-15T18:12:04.025Z,17.70
2018-04-15T18:14:31.730Z,17.50
2018-04-15T18:16:59.327Z,17.40
2018-04-15T18:19:27.125Z,17.30
2018-04-15T18:21:55.497Z,17.00
2018-04-15T18:24:23.848Z,16.90
2018-04-15T18:26:51.450Z,16.90
2018-04-15T18:29:19.856Z,16.70
2018-04-15T18:31:47.541Z,16.70
2018-04-15T18:34:15.689Z,16.70
2018-04-15T18:36:43.649Z,16.60
2018-04-15T18:39:11.998Z,16.40
2018-04-15T18:41:39.652Z,16.40
2018-04-15T18:44:08.016Z,16.30
2018-04-15T18:46:35.605Z,16.20
2018-04-15T18:49:03.952Z,16.20
2018-04-15T18:51:31.571Z,16.20
2018-04-15T19:10:14.616Z,16.10
2018-04-15T19:12:42.237Z,15.80
2018-04-15T19:15:10.795Z,15.80
2018-04-15T19:17:38.345Z,15.80
2018-04-15T19:20:05.974Z,15.90
2018-04-15T19:22:34.387Z,15.90
2018-04-15T19:25:02.270Z,15.90
2018-04-15T19:27:29.841Z,16.00
2018-04-15T19:29:57.454Z,16.00
2018-04-15T19:32:25.046Z,16.00
2018-04-15T19:34:52.615Z,16.00
2018-04-15T19:37:20.766Z,16.00
2018-04-15T19:39:48.390Z,15.90
2018-04-15T19:42:17.570Z,15.70
2018-04-15T19:44:45.827Z,15.70
2018-04-15T19:56:58.454Z,15.60
2018-04-15T19:59:26.827Z,15.30
2018-04-15T20:01:55.180Z,15.30
2018-04-15T20:04:22.770Z,15.30
2018-04-15T20:06:51.200Z,15.40
2018-04-15T20:09:18.840Z,15.40
2018-04-15T20:11:49.088Z,15.50
2018-04-15T20:14:24.577Z,15.60
2018-04-15T20:16:53.704Z,15.60
2018-04-15T20:22:06.385Z,15.60
2018-04-15T20:24:34.003Z,15.60
2018-04-15T20:27:01.662Z,15.60
2018-04-15T20:29:29.201Z,15.60
2018-04-15T20:31:57.545Z,15.60
2018-04-15T20:34:25.148Z,15.60
2018-04-15T20:36:53.472Z,15.60
2018-04-15T20:39:21.094Z,15.60
2018-04-15T20:41:48.693Z,15.60
2018-04-15T20:44:16.287Z,15.50
2018-04-15T20:46:43.897Z,15.50
2018-04-15T20:49:12.284Z,15.30
2018-04-15T20:51:39.858Z,15.30
2018-04-15T20:54:07.427Z,15.20
2018-04-15T20:56:35.006Z,15.10
2018-04-15T20:59:02.596Z,15.00
2018-04-15T21:01:30.169Z,15.00
2018-04-15T21:03:57.755Z,14.90
2018-04-15T21:06:25.329Z,14.90
2018-04-15T21:08:52.926Z,14.80
2018-04-15T21:11:21.271Z,14.70
2018-04-15T21:13:48.851Z,14.70
2018-04-15T21:16:16.436Z,14.70
2018-04-15T21:18:44.823Z,14.60
2018-04-15T21:21:13.192Z,14.50
2018-04-15T21:23:41.521Z,14.50
2018-04-15T21:26:09.116Z,14.50
2018-04-15T21:28:36.677Z,14.50
2018-04-15T21:31:04.269Z,14.40
2018-04-15T21:33:31.859Z,14.30
2018-04-15T21:36:00.801Z,14.20
2018-04-15T21:38:29.169Z,14.20
2018-04-15T21:40:56.759Z,14.20
2018-04-15T21:43:24.327Z,14.20
2018-04-15T21:45:51.915Z,14.10
2018-04-15T21:48:19.476Z,14.10
2018-04-15T21:50:47.112Z,14.10
2018-04-15T21:53:14.709Z,14.00
2018-04-15T21:55:42.298Z,13.90
2018-04-15T21:58:09.876Z,13.90
2018-04-15T22:00:38.218Z,13.80
2018-04-15T22:03:05.755Z,13.80
2018-04-15T22:05:33.324Z,13.70
2018-04-15T22:08:00.910Z,13.80
2018-04-15T22:10:28.476Z,13.80
2018-04-15T22:13:07.743Z,13.80
2018-04-15T22:15:36.103Z,13.80
2018-04-15T22:18:03.669Z,13.70
2018-04-15T22:20:32.006Z,13.70
2018-04-15T22:22:59.609Z,13.70
2018-04-15T22:25:27.934Z,13.60
2018-04-15T22:27:55.569Z,13.60
2018-04-15T22:30:23.151Z,13.50
2018-04-15T22:32:50.740Z,13.50
2018-04-15T22:35:18.304Z,13.40
2018-04-15T22:37:45.904Z,13.40
2018-04-15T22:40:14.253Z,13.30
2018-04-15T22:42:41.840Z,13.30
2018-04-15T22:45:10.186Z,13.30
2018-04-15T22:47:52.627Z,13.30
2018-04-15T22:50:20.961Z,13.30
2018-04-15T22:52:48.536Z,13.30
2018-04-15T22:55:16.123Z,13.20
2018-04-15T22:57:44.469Z,13.30
2018-04-15T23:00:12.026Z,13.20
2018-04-15T23:02:39.609Z,13.30
2018-04-15T23:05:07.196Z,13.30
2018-04-15T23:07:34.791Z,13.30
2018-04-15T23:10:02.376Z,13.30
2018-04-15T23:12:29.977Z,13.30
2018-04-15T23:14:58.300Z,13.20
2018-04-15T23:17:25.880Z,13.20
2018-04-15T23:19:53.437Z,13.20
2018-04-15T23:22:21.117Z,13.20
2018-04-15T23:24:48.692Z,13.10
2018-04-15T23:27:17.032Z,13.00
2018-04-15T23:29:44.624Z,13.00
2018-04-15T23:32:12.220Z,12.90
2018-04-15T23:34:39.805Z,12.90
2018-04-15T23:37:07.371Z,12.90
2018-04-15T23:39:35.029Z,12.80
2018-04-15T23:42:02.544Z,12.70
2018-04-15T23:44:30.884Z,12.60
2018-04-15T23:46:58.453Z,12.60
2018-04-15T23:49:26.062Z,12.50
2018-04-15T23:51:53.633Z,12.60
2018-04-15T23:54:21.236Z,12.50
2018-04-15T23:56:54.451Z,12.50
2018-04-15T23:59:22.817Z,12.50
